createdAt,value
2018-12-30T00:00:20.070Z,6.30
2018-12-30T00:02:48.497Z,6.20
2018-12-30T00:05:17.260Z,6.50
2018-12-30T00:07:45.606Z,6.60
2018-12-30T00:10:13.987Z,6.60
2018-12-30T00:12:42.336Z,6.60
2018-12-30T00:15:11.021Z,6.60
2018-12-30T00:17:39.368Z,6.60
2018-12-30T00:20:07.734Z,6.50
2018-12-30T00:22:36.082Z,6.30
2018-12-30T00:25:05.102Z,6.20
2018-12-30T00:27:33.463Z,6.10
2018-12-30T00:30:21.269Z,5.90
2018-12-30T00:32:49.623Z,5.80
2018-12-30T00:35:17.984Z,5.70
2018-12-30T00:37:46.352Z,5.60
2018-12-30T00:40:15.011Z,5.60
2018-12-30T00:42:43.342Z,5.70
2018-12-30T00:45:11.699Z,5.70
2018-12-30T00:47:40.082Z,5.80
2018-12-30T00:50:08.597Z,5.70
2018-12-30T00:52:36.948Z,5.60
2018-12-30T00:55:05.385Z,5.60
2018-12-30T00:57:33.742Z,5.60
2018-12-30T01:00:02.114Z,5.50
2018-12-30T01:02:30.482Z,5.60
2018-12-30T01:04:58.858Z,5.50
2018-12-30T01:07:27.250Z,5.50
2018-12-30T01:09:55.922Z,5.50
2018-12-30T01:12:24.288Z,5.50
2018-12-30T01:14:52.666Z,5.40
2018-12-30T01:17:21.036Z,5.50
2018-12-30T01:19:49.386Z,5.40
2018-12-30T01:22:17.758Z,5.40
2018-12-30T01:24:46.522Z,5.40
2018-12-30T01:27:14.902Z,5.40
2018-12-30T01:29:43.278Z,5.40
2018-12-30T01:32:11.677Z,5.40
2018-12-30T01:34:40.034Z,5.30
2018-12-30T01:37:08.432Z,5.30
2018-12-30T01:39:36.811Z,5.10
2018-12-30T01:42:05.186Z,5.10
2018-12-30T01:44:33.580Z,5.00
2018-12-30T01:47:01.929Z,4.80
2018-12-30T01:49:30.296Z,4.70
2018-12-30T01:51:58.961Z,4.70
2018-12-30T01:54:27.390Z,4.70
2018-12-30T01:56:55.743Z,4.60
2018-12-30T01:59:24.117Z,4.60
2018-12-30T02:01:52.583Z,4.60
2018-12-30T02:04:21.027Z,4.60
2018-12-30T02:06:49.398Z,4.70
2018-12-30T02:09:17.768Z,4.70
2018-12-30T02:11:46.120Z,4.60
2018-12-30T02:14:14.534Z,4.70
2018-12-30T02:16:42.891Z,4.80
2018-12-30T02:19:11.490Z,4.80
2018-12-30T02:21:41.218Z,5.00
2018-12-30T02:24:09.838Z,5.20
2018-12-30T02:26:38.203Z,5.30
2018-12-30T02:29:06.579Z,5.30
2018-12-30T02:31:35.238Z,5.30
2018-12-30T02:34:03.664Z,5.20
2018-12-30T02:36:32.044Z,5.10
2018-12-30T02:39:00.414Z,5.10
2018-12-30T02:41:28.797Z,5.10
2018-12-30T02:43:57.665Z,5.10
2018-12-30T02:46:26.034Z,5.10
2018-12-30T02:48:54.568Z,5.10
2018-12-30T02:51:22.946Z,5.20
2018-12-30T02:53:51.348Z,5.20
2018-12-30T02:56:20.036Z,5.20
2018-12-30T02:58:48.406Z,5.30
2018-12-30T03:01:16.769Z,5.20
2018-12-30T03:03:45.384Z,5.30
2018-12-30T03:06:13.753Z,5.20
2018-12-30T03:08:42.426Z,5.20
2018-12-30T03:11:10.786Z,5.30
2018-12-30T03:13:39.158Z,5.20
2018-12-30T03:16:07.534Z,5.20
2018-12-30T03:18:35.980Z,5.20
2018-12-30T03:21:04.830Z,5.20
2018-12-30T03:23:33.183Z,5.10
2018-12-30T03:26:01.552Z,5.10
2018-12-30T03:28:29.925Z,5.10
2018-12-30T03:30:58.475Z,5.00
2018-12-30T03:33:26.831Z,5.00
2018-12-30T03:35:55.153Z,5.00
2018-12-30T03:38:23.701Z,5.00
2018-12-30T03:40:52.081Z,5.00
2018-12-30T03:43:20.362Z,5.00
2018-12-30T03:45:48.734Z,4.90
2018-12-30T03:48:17.042Z,5.00
2018-12-30T03:50:45.434Z,5.00
2018-12-30T03:53:13.790Z,5.00
2018-12-30T03:55:42.143Z,5.00
2018-12-30T03:58:10.543Z,5.00
2018-12-30T04:00:38.906Z,5.00
2018-12-30T04:03:07.207Z,5.10
2018-12-30T04:05:35.495Z,5.00
2018-12-30T04:08:03.821Z,5.00
2018-12-30T04:10:32.117Z,5.00
2018-12-30T04:13:00.438Z,4.90
2018-12-30T04:15:28.795Z,4.90
2018-12-30T04:17:57.174Z,4.90
2018-12-30T04:20:25.465Z,4.90
2018-12-30T04:22:53.836Z,4.90
2018-12-30T04:25:22.212Z,4.90
2018-12-30T04:27:50.662Z,4.90
2018-12-30T04:30:19.043Z,4.90
2018-12-30T04:32:47.334Z,4.90
2018-12-30T04:35:15.676Z,5.00
2018-12-30T04:37:44.038Z,5.00
2018-12-30T04:40:12.417Z,5.10
2018-12-30T04:42:40.739Z,5.10
2018-12-30T04:45:09.303Z,5.10
2018-12-30T04:47:37.666Z,5.10
2018-12-30T04:50:06.360Z,5.10
2018-12-30T04:52:34.724Z,5.20
2018-12-30T04:55:03.092Z,5.20
2018-12-30T04:57:31.515Z,5.20
2018-12-30T04:59:59.908Z,5.20
2018-12-30T05:02:28.256Z,5.20
2018-12-30T05:04:57.026Z,5.30
2018-12-30T05:07:25.306Z,5.30
2018-12-30T05:09:53.610Z,5.30
2018-12-30T05:12:21.899Z,5.30
2018-12-30T05:14:50.282Z,5.30
2018-12-30T05:17:18.644Z,5.30
2018-12-30T05:19:47.041Z,5.30
2018-12-30T05:22:15.393Z,5.30
2018-12-30T05:24:43.715Z,5.30
2018-12-30T05:27:12.034Z,5.30
2018-12-30T05:29:40.411Z,5.20
2018-12-30T05:32:08.770Z,5.10
2018-12-30T05:34:37.073Z,5.10
2018-12-30T05:37:05.438Z,5.10
2018-12-30T05:39:33.829Z,5.10
2018-12-30T05:42:02.399Z,5.10
2018-12-30T05:44:30.709Z,5.10
2018-12-30T05:46:58.993Z,5.20
2018-12-30T05:49:27.359Z,5.20
2018-12-30T05:51:55.719Z,5.20
2018-12-30T05:54:24.020Z,5.20
2018-12-30T05:56:52.306Z,5.30
2018-12-30T05:59:20.789Z,5.30
2018-12-30T06:01:49.153Z,5.40
2018-12-30T06:04:17.443Z,5.40
2018-12-30T06:06:45.746Z,5.40
2018-12-30T06:09:14.161Z,5.50
2018-12-30T06:11:42.467Z,5.50
2018-12-30T06:14:10.831Z,5.40
2018-12-30T06:16:39.207Z,5.40
2018-12-30T06:19:07.529Z,5.40
2018-12-30T06:21:35.919Z,5.40
2018-12-30T06:24:04.204Z,5.40
2018-12-30T06:26:32.507Z,5.40
2018-12-30T06:29:00.879Z,5.50
2018-12-30T06:31:29.289Z,5.50
2018-12-30T06:33:57.715Z,5.50
2018-12-30T06:36:26.113Z,5.50
2018-12-30T06:38:54.557Z,5.40
2018-12-30T06:41:22.951Z,5.40
2018-12-30T06:43:51.317Z,5.50
2018-12-30T06:46:19.709Z,5.50
2018-12-30T06:48:48.061Z,5.60
2018-12-30T06:51:16.366Z,5.50
2018-12-30T06:53:44.661Z,5.60
2018-12-30T06:56:13.037Z,5.60
2018-12-30T06:58:41.390Z,5.60
2018-12-30T07:01:09.866Z,5.60
2018-12-30T07:03:38.147Z,5.60
2018-12-30T07:06:06.860Z,5.60
2018-12-30T07:08:35.215Z,5.50
2018-12-30T07:11:03.598Z,5.50
2018-12-30T07:13:31.950Z,5.60
2018-12-30T07:16:00.323Z,5.60
2018-12-30T07:18:28.606Z,5.50
2018-12-30T07:20:56.900Z,5.50
2018-12-30T07:23:25.191Z,5.40
2018-12-30T07:25:53.573Z,5.40
2018-12-30T07:28:22.202Z,5.40
2018-12-30T07:30:50.549Z,5.30
2018-12-30T07:33:18.942Z,5.40
2018-12-30T07:35:47.414Z,5.30
2018-12-30T07:38:15.722Z,5.40
2018-12-30T07:40:44.166Z,5.40
2018-12-30T07:43:13.107Z,5.40
2018-12-30T07:45:41.583Z,5.30
2018-12-30T07:48:10.165Z,5.40
2018-12-30T07:50:38.525Z,5.50
2018-12-30T07:53:13.679Z,5.50
2018-12-30T07:58:27.169Z,5.70
2018-12-30T08:00:55.453Z,5.70
2018-12-30T08:03:24.072Z,5.70
2018-12-30T08:05:52.617Z,5.70
2018-12-30T08:08:21.105Z,5.70
2018-12-30T08:10:49.503Z,5.80
2018-12-30T08:13:17.887Z,5.80
2018-12-30T08:15:46.276Z,5.80
2018-12-30T08:18:14.650Z,5.90
2018-12-30T08:20:43.020Z,7.10
2018-12-30T08:23:11.308Z,6.00
2018-12-30T08:25:39.902Z,6.00
2018-12-30T08:28:08.366Z,6.00
2018-12-30T08:30:36.736Z,6.00
2018-12-30T08:33:05.090Z,6.00
2018-12-30T08:35:34.838Z,6.00
2018-12-30T08:38:03.430Z,6.00
2018-12-30T08:40:51.242Z,6.00
2018-12-30T08:43:19.580Z,6.00
2018-12-30T08:45:47.887Z,6.10
2018-12-30T08:48:16.255Z,6.10
2018-12-30T08:50:44.617Z,6.10
2018-12-30T08:53:12.974Z,6.20
2018-12-30T08:55:41.378Z,6.20
2018-12-30T08:58:09.695Z,6.30
2018-12-30T09:00:37.989Z,6.30
2018-12-30T09:03:06.339Z,6.30
2018-12-30T09:05:34.668Z,6.30
2018-12-30T09:08:03.029Z,6.30
2018-12-30T09:10:32.331Z,6.40
2018-12-30T09:13:02.673Z,6.40
2018-12-30T09:15:33.059Z,6.40
2018-12-30T09:18:01.850Z,6.50
2018-12-30T09:20:31.386Z,6.50
2018-12-30T09:22:59.751Z,6.60
2018-12-30T09:25:28.046Z,6.60
2018-12-30T09:27:56.328Z,6.70
2018-12-30T09:30:24.660Z,6.70
2018-12-30T09:32:52.946Z,6.70
2018-12-30T09:35:21.550Z,6.80
2018-12-30T09:37:49.903Z,6.80
2018-12-30T09:40:18.206Z,6.80
2018-12-30T09:42:46.485Z,6.90
2018-12-30T09:45:14.787Z,7.00
2018-12-30T09:47:43.142Z,7.00
2018-12-30T09:50:11.430Z,7.10
2018-12-30T09:52:39.706Z,7.10
2018-12-30T09:55:08.113Z,7.20
2018-12-30T09:57:36.471Z,7.30
2018-12-30T10:00:07.491Z,7.30
2018-12-30T10:02:55.279Z,7.30
2018-12-30T10:05:23.651Z,7.30
2018-12-30T10:07:52.011Z,7.60
2018-12-30T10:10:20.501Z,8.10
2018-12-30T10:12:48.883Z,8.40
2018-12-30T10:15:17.308Z,8.70
2018-12-30T10:17:45.693Z,9.00
2018-12-30T10:20:14.240Z,9.30
2018-12-30T10:22:42.613Z,9.40
2018-12-30T10:25:11.605Z,9.30
2018-12-30T10:27:40.049Z,9.00
2018-12-30T10:30:09.346Z,8.80
2018-12-30T10:32:37.673Z,8.50
2018-12-30T10:35:06.020Z,8.40
2018-12-30T10:37:34.624Z,8.30
2018-12-30T10:40:02.951Z,8.20
2018-12-30T10:42:31.239Z,8.20
2018-12-30T10:44:59.871Z,8.10
2018-12-30T10:47:28.191Z,8.10
2018-12-30T10:49:56.879Z,8.10
2018-12-30T10:52:25.231Z,8.10
2018-12-30T10:54:53.523Z,8.10
2018-12-30T10:57:21.824Z,8.10
2018-12-30T10:59:50.320Z,8.20
2018-12-30T11:02:18.905Z,8.30
2018-12-30T11:04:47.568Z,8.30
2018-12-30T11:07:15.948Z,8.40
2018-12-30T11:09:44.234Z,8.40
2018-12-30T11:12:12.712Z,8.50
2018-12-30T11:14:41.002Z,8.50
2018-12-30T11:17:09.385Z,8.50
2018-12-30T11:19:37.757Z,8.50
2018-12-30T11:22:06.040Z,8.60
2018-12-30T11:24:34.411Z,8.60
2018-12-30T11:27:02.686Z,8.60
2018-12-30T11:29:31.161Z,8.60
2018-12-30T11:31:59.577Z,8.70
2018-12-30T11:34:28.004Z,8.70
2018-12-30T11:36:56.423Z,8.70
2018-12-30T11:39:24.793Z,8.70
2018-12-30T11:41:54.783Z,8.80
2018-12-30T11:44:23.093Z,8.90
2018-12-30T11:46:51.396Z,8.90
2018-12-30T11:49:19.689Z,9.00
2018-12-30T11:51:48.008Z,9.00
2018-12-30T11:54:16.894Z,9.10
2018-12-30T11:56:45.341Z,9.10
2018-12-30T11:59:13.699Z,9.10
2018-12-30T12:01:42.077Z,9.20
2018-12-30T12:04:10.441Z,9.20
2018-12-30T12:06:38.983Z,9.20
2018-12-30T12:09:07.439Z,9.20
2018-12-30T12:11:35.795Z,9.30
2018-12-30T12:14:04.127Z,9.30
2018-12-30T12:16:32.463Z,9.50
2018-12-30T12:19:00.766Z,9.70
2018-12-30T12:21:29.311Z,9.80
2018-12-30T12:23:57.807Z,9.80
2018-12-30T12:26:26.169Z,9.90
2018-12-30T12:28:54.473Z,9.90
2018-12-30T12:31:22.765Z,9.90
2018-12-30T12:33:51.240Z,9.90
2018-12-30T12:36:19.617Z,9.90
2018-12-30T12:38:47.958Z,9.80
2018-12-30T12:41:16.393Z,9.80
2018-12-30T12:43:44.752Z,9.80
2018-12-30T12:46:13.140Z,9.80
2018-12-30T12:48:41.494Z,9.80
2018-12-30T12:51:09.881Z,9.80
2018-12-30T12:53:38.328Z,9.90
2018-12-30T12:56:06.632Z,9.90
2018-12-30T12:58:35.012Z,9.80
2018-12-30T13:01:03.392Z,9.80
2018-12-30T13:03:31.683Z,9.80
2018-12-30T13:06:00.004Z,9.80
2018-12-30T13:08:28.415Z,9.70
2018-12-30T13:10:56.784Z,9.70
2018-12-30T13:13:25.154Z,9.70
2018-12-30T13:15:53.533Z,9.70
2018-12-30T13:18:21.917Z,9.70
2018-12-30T13:20:50.299Z,9.60
2018-12-30T13:23:18.826Z,9.60
2018-12-30T13:25:47.486Z,9.60
2018-12-30T13:28:16.095Z,9.60
2018-12-30T13:30:44.354Z,9.60
2018-12-30T13:33:12.721Z,9.60
2018-12-30T13:35:43.533Z,9.70
2018-12-30T13:38:11.151Z,9.70
2018-12-30T13:40:39.523Z,9.70
2018-12-30T13:43:08.081Z,9.80
2018-12-30T13:45:36.516Z,9.70
2018-12-30T13:48:04.942Z,9.80
2018-12-30T13:50:33.315Z,9.80
2018-12-30T13:53:01.622Z,9.80
2018-12-30T13:55:30.199Z,9.80
2018-12-30T13:57:58.556Z,9.80
2018-12-30T14:00:26.963Z,9.80
2018-12-30T14:02:55.246Z,9.80
2018-12-30T14:05:23.551Z,9.80
2018-12-30T14:07:51.834Z,9.90
2018-12-30T14:10:20.135Z,9.90
2018-12-30T14:12:48.418Z,9.90
2018-12-30T14:15:16.952Z,9.90
2018-12-30T14:17:45.282Z,9.90
2018-12-30T14:20:14.518Z,9.90
2018-12-30T14:22:42.823Z,9.80
2018-12-30T14:25:11.182Z,9.80
2018-12-30T14:27:39.560Z,9.80
2018-12-30T14:30:08.665Z,9.80
2018-12-30T14:32:37.044Z,9.80
2018-12-30T14:35:05.808Z,9.80
2018-12-30T14:37:34.147Z,9.70
2018-12-30T14:40:02.513Z,9.70
2018-12-30T14:42:30.883Z,9.70
2018-12-30T14:44:59.166Z,9.70
2018-12-30T14:47:27.464Z,9.70
2018-12-30T14:49:55.875Z,9.70
2018-12-30T14:52:24.244Z,9.70
2018-12-30T14:54:52.523Z,9.60
2018-12-30T14:57:20.882Z,9.60
2018-12-30T14:59:49.270Z,9.60
2018-12-30T15:02:17.622Z,9.70
2018-12-30T15:04:46.041Z,9.70
2018-12-30T15:07:14.383Z,9.70
2018-12-30T15:09:42.805Z,9.70
2018-12-30T15:12:11.264Z,9.70
2018-12-30T15:14:39.563Z,9.70
2018-12-30T15:17:07.869Z,9.70
2018-12-30T15:19:36.251Z,9.70
2018-12-30T15:22:04.549Z,9.70
2018-12-30T15:24:32.971Z,9.70
2018-12-30T15:27:01.285Z,9.70
2018-12-30T15:29:29.639Z,9.60
2018-12-30T15:31:57.981Z,9.70
2018-12-30T15:34:26.507Z,9.70
2018-12-30T15:36:54.877Z,9.70
2018-12-30T15:39:23.309Z,9.60
2018-12-30T15:41:51.675Z,9.60
2018-12-30T15:44:20.039Z,9.60
2018-12-30T15:46:48.426Z,9.60
2018-12-30T15:49:16.814Z,9.60
2018-12-30T15:51:45.119Z,9.60
2018-12-30T15:54:15.853Z,9.60
2018-12-30T15:56:44.217Z,9.60
2018-12-30T15:59:12.522Z,9.60
2018-12-30T16:01:40.897Z,9.60
2018-12-30T16:04:09.246Z,9.60
2018-12-30T16:06:37.547Z,9.60
2018-12-30T16:09:07.720Z,9.60
2018-12-30T16:11:36.059Z,9.60
2018-12-30T16:14:04.346Z,9.60
2018-12-30T16:16:32.658Z,9.70
2018-12-30T16:19:01.036Z,9.70
2018-12-30T16:21:29.484Z,9.70
2018-12-30T16:23:57.844Z,9.70
2018-12-30T16:26:26.158Z,9.60
2018-12-30T16:28:54.514Z,9.60
2018-12-30T16:31:28.094Z,9.60
2018-12-30T16:33:52.904Z,9.60
2018-12-30T16:36:21.260Z,9.60
2018-12-30T16:38:49.637Z,9.50
2018-12-30T16:41:17.921Z,9.50
2018-12-30T16:43:46.295Z,9.50
2018-12-30T16:46:14.661Z,9.50
2018-12-30T16:48:43.187Z,9.50
2018-12-30T16:51:11.610Z,9.50
2018-12-30T16:53:39.987Z,9.50
2018-12-30T16:56:08.402Z,9.50
2018-12-30T16:58:36.759Z,9.50
2018-12-30T17:01:05.161Z,9.50
2018-12-30T17:03:33.542Z,9.50
2018-12-30T17:06:01.829Z,9.50
2018-12-30T17:08:30.135Z,9.40
2018-12-30T17:10:58.411Z,9.40
2018-12-30T17:13:26.771Z,9.40
2018-12-30T17:15:55.131Z,9.40
2018-12-30T17:18:23.658Z,9.30
2018-12-30T17:20:51.972Z,9.30
2018-12-30T17:23:20.339Z,9.30
2018-12-30T17:25:48.715Z,9.20
2018-12-30T17:28:17.555Z,9.30
2018-12-30T17:30:46.161Z,9.30
2018-12-30T17:33:14.525Z,9.20
2018-12-30T17:35:43.277Z,9.20
2018-12-30T17:38:12.076Z,9.30
2018-12-30T17:40:40.454Z,9.20
2018-12-30T17:43:08.856Z,9.30
2018-12-30T17:45:37.311Z,9.20
2018-12-30T17:48:05.704Z,9.20
2018-12-30T17:50:34.074Z,9.20
2018-12-30T17:53:02.576Z,9.20
2018-12-30T17:55:30.866Z,9.20
2018-12-30T17:57:59.167Z,9.20
2018-12-30T18:00:27.455Z,9.30
2018-12-30T18:02:55.775Z,9.20
2018-12-30T18:05:24.353Z,9.20
2018-12-30T18:07:52.643Z,9.30
2018-12-30T18:10:21.033Z,9.30
2018-12-30T18:12:49.454Z,9.30
2018-12-30T18:15:17.753Z,9.30
2018-12-30T18:17:46.034Z,9.30
2018-12-30T18:20:14.403Z,9.20
2018-12-30T18:23:00.946Z,9.20
2018-12-30T18:25:47.098Z,9.20
2018-12-30T18:28:33.272Z,9.20
2018-12-30T18:31:01.670Z,9.20
2018-12-30T18:33:30.042Z,9.20
2018-12-30T18:36:16.362Z,9.20
2018-12-30T18:39:02.500Z,9.20
2018-12-30T18:41:48.970Z,9.20
2018-12-30T18:44:35.464Z,8.90
2018-12-30T18:47:22.167Z,9.20
2018-12-30T18:50:08.501Z,9.20
2018-12-30T18:52:36.817Z,9.20
2018-12-30T18:55:06.050Z,9.20
2018-12-30T18:57:34.472Z,9.20
2018-12-30T19:00:02.758Z,9.20
2018-12-30T19:02:31.075Z,9.20
2018-12-30T19:04:59.486Z,9.20
2018-12-30T19:07:27.847Z,9.20
2018-12-30T19:09:56.238Z,9.20
2018-12-30T19:12:24.595Z,9.20
2018-12-30T19:15:11.349Z,9.20
2018-12-30T19:17:58.031Z,9.20
2018-12-30T19:20:26.341Z,9.20
2018-12-30T19:22:54.679Z,9.30
2018-12-30T19:25:41.027Z,9.30
2018-12-30T19:28:09.351Z,9.30
2018-12-30T19:31:13.953Z,9.30
2018-12-30T19:33:42.307Z,9.30
2018-12-30T19:36:10.675Z,9.30
2018-12-30T19:38:39.043Z,9.30
2018-12-30T19:41:25.103Z,9.40
2018-12-30T19:43:53.481Z,9.40
2018-12-30T19:46:21.843Z,9.40
2018-12-30T19:48:50.272Z,9.40
2018-12-30T19:51:18.696Z,9.40
2018-12-30T19:53:47.235Z,9.40
2018-12-30T19:56:21.918Z,9.40
2018-12-30T19:58:45.835Z,9.40
2018-12-30T20:01:14.240Z,9.50
2018-12-30T20:03:42.798Z,9.50
2018-12-30T20:06:11.298Z,9.50
2018-12-30T20:08:39.584Z,9.50
2018-12-30T20:11:08.453Z,10.50
2018-12-30T20:13:36.917Z,9.50
2018-12-30T20:16:05.582Z,9.50
2018-12-30T20:18:34.072Z,9.50
2018-12-30T20:21:02.529Z,9.50
2018-12-30T20:23:30.959Z,9.50
2018-12-30T20:25:59.382Z,9.50
2018-12-30T20:28:27.760Z,9.50
2018-12-30T20:30:56.238Z,9.50
2018-12-30T20:33:24.616Z,9.50
2018-12-30T20:35:53.229Z,9.50
2018-12-30T20:38:21.689Z,9.60
2018-12-30T20:40:50.064Z,9.60
2018-12-30T20:43:18.433Z,9.60
2018-12-30T20:45:46.907Z,9.60
2018-12-30T20:48:15.237Z,9.60
2018-12-30T20:50:43.543Z,9.60
2018-12-30T20:53:11.993Z,9.60
2018-12-30T20:55:40.369Z,9.70
2018-12-30T20:58:08.643Z,9.60
2018-12-30T21:00:36.949Z,9.60
2018-12-30T21:03:05.301Z,9.70
2018-12-30T21:05:33.610Z,9.70
2018-12-30T21:08:01.954Z,9.60
2018-12-30T21:10:30.267Z,9.60
2018-12-30T21:12:58.558Z,9.60
2018-12-30T21:15:27.011Z,9.60
2018-12-30T21:17:56.992Z,9.60
2018-12-30T21:20:25.359Z,9.50
2018-12-30T21:22:53.999Z,9.50
2018-12-30T21:25:22.291Z,9.50
2018-12-30T21:27:50.715Z,9.50
2018-12-30T21:30:19.083Z,9.40
2018-12-30T21:32:47.455Z,9.50
2018-12-30T21:35:15.974Z,9.40
2018-12-30T21:37:44.374Z,9.40
2018-12-30T21:40:12.650Z,9.40
2018-12-30T21:42:43.860Z,9.40
2018-12-30T21:45:11.100Z,9.40
2018-12-30T21:47:39.488Z,9.30
2018-12-30T21:50:08.533Z,9.30
2018-12-30T21:52:36.882Z,9.30
2018-12-30T21:55:05.385Z,9.30
2018-12-30T21:57:33.667Z,9.30
2018-12-30T22:00:02.047Z,9.30
2018-12-30T22:02:30.405Z,9.30
2018-12-30T22:04:58.764Z,9.30
2018-12-30T22:07:27.057Z,9.30
2018-12-30T22:09:55.427Z,9.30
2018-12-30T22:12:23.783Z,9.30
2018-12-30T22:14:52.138Z,9.30
2018-12-30T22:17:20.514Z,9.40
2018-12-30T22:19:48.854Z,9.30
2018-12-30T22:22:17.239Z,9.30
2018-12-30T22:24:45.676Z,9.40
2018-12-30T22:27:13.984Z,9.30
2018-12-30T22:29:42.272Z,9.30
2018-12-30T22:32:10.754Z,9.40
2018-12-30T22:34:39.056Z,9.40
2018-12-30T22:37:07.366Z,9.40
2018-12-30T22:39:35.648Z,9.40
2018-12-30T22:42:03.945Z,9.30
2018-12-30T22:44:32.328Z,9.40
2018-12-30T22:47:00.744Z,9.30
2018-12-30T22:49:29.018Z,9.40
2018-12-30T22:51:57.406Z,9.40
2018-12-30T22:54:25.762Z,9.40
2018-12-30T22:56:54.130Z,9.30
2018-12-30T22:59:22.493Z,9.30
2018-12-30T23:01:51.059Z,9.30
2018-12-30T23:04:19.417Z,9.30
2018-12-30T23:06:47.733Z,9.30
2018-12-30T23:09:16.118Z,9.30
2018-12-30T23:11:44.505Z,9.30
2018-12-30T23:14:12.983Z,9.30
2018-12-30T23:16:41.486Z,9.30
2018-12-30T23:19:09.948Z,9.30
2018-12-30T23:21:38.337Z,9.30
2018-12-30T23:24:06.788Z,9.30
2018-12-30T23:26:35.193Z,9.30
2018-12-30T23:29:03.694Z,9.30
2018-12-30T23:31:31.989Z,9.30
2018-12-30T23:34:00.289Z,9.30
2018-12-30T23:36:28.769Z,9.30
2018-12-30T23:38:57.067Z,9.30
2018-12-30T23:41:25.489Z,9.30
2018-12-30T23:43:53.855Z,9.40
2018-12-30T23:46:22.215Z,9.40
2018-12-30T23:48:50.599Z,9.40
2018-12-30T23:51:19.108Z,9.40
2018-12-30T23:53:47.553Z,9.40
2018-12-30T23:56:15.962Z,9.40
2018-12-30T23:58:44.295Z,9.40
